Latest Weather Observations for Port Lincoln Airport

IDS60801

Issued at 4:05 pm CST Tuesday 2 September 2014 (issued every 30 minutes, with the page automatically refreshed every 10 minutes)

About weather observations | Map of weather stations | Latest weather observations for SA | Other Formats
Station Details ID: 018192 Name: PORT LINCOLN AWS Lat: -34.60 Lon: 135.88 Height: 8.5 m
Data from the previous 72 hours. | See also: Recent months at Port Lincoln Airport
Date/Time
CST
Temp
°C
App
Temp
°C
Dew
Point
Rel
Hum
%
Delta-T
°C
Wind Press
QNH
hPa
Press
MSL
hPa
Rain
since 9 am
mm
Dir
 
Spd
km/h
Gust
km/h
Spd
kts
Gust
kts
02/04:00pm 14.1 9.8 7.2 63 3.4 SSE 19 22 10 12 1026.6 1026.6 0.0
02/03:30pm 13.8 9.9 6.9 63 3.3 SSE 17 24 9 13 1026.6 1026.6 0.0
02/03:00pm 13.5 9.3 7.3 66 3.0 SSE 19 26 10 14 1026.7 1026.7 0.0
02/02:30pm 13.5 8.5 8.1 70 2.7 SE 24 30 13 16 1026.5 1026.5 0.0
02/02:00pm 14.3 8.9 7.8 65 3.2 S 26 30 14 16 1026.6 1026.6 0.0
02/01:30pm 14.4 8.5 7.7 64 3.3 S 28 35 15 19 1026.8 1026.8 0.0
02/01:00pm 14.4 9.1 7.0 61 3.6 SSE 24 32 13 17 1027.2 1027.2 0.0
02/12:30pm 14.0 8.6 8.0 67 3.0 S 26 32 14 17 1027.4 1027.4 0.0
02/12:00pm 13.7 9.5 8.1 69 2.8 SSW 20 28 11 15 1027.6 1027.6 0.0
02/11:30am 12.4 7.1 8.3 76 2.0 SSE 26 33 14 18 1027.9 1027.9 0.0
02/11:00am 13.3 7.6 6.9 65 3.1 S 26 33 14 18 1027.6 1027.6 0.0
02/10:30am 14.1 9.2 6.7 61 3.6 S 22 28 12 15 1027.5 1027.5 0.0
02/10:00am 13.3 6.8 6.4 63 3.3 S 30 37 16 20 1027.6 1027.6 0.0
02/09:30am 13.3 8.7 8.0 70 2.6 SSW 22 28 12 15 1027.3 1027.3 0.0
02/09:00am 13.2 9.0 8.1 71 2.5 S 20 26 11 14 1027.3 1027.3 3.6
02/08:30am 12.0 7.8 8.1 77 1.9 SSW 20 26 11 14 1027.1 1027.1 3.6
02/08:00am 10.3 6.2 7.7 84 1.2 SSW 19 26 10 14 1027.2 1027.2 3.6
02/07:30am 8.4 4.6 6.0 85 1.1 WSW 15 17 8 9 1027.0 1027.0 3.6
02/07:00am 7.8 3.9 5.3 84 1.1 WSW 15 19 8 10 1026.4 1026.4 3.6
02/06:30am 7.9 3.6 5.4 84 1.1 WSW 17 19 9 10 1026.2 1026.2 3.6
02/06:00am 8.4 5.0 5.7 83 1.2 SW 13 17 7 9 1025.8 1025.8 3.6
02/05:30am 7.9 4.4 5.5 85 1.1 WSW 13 17 7 9 1025.7 1025.7 3.6
02/05:00am 7.7 3.7 4.8 82 1.3 WSW 15 20 8 11 1025.4 1025.4 3.6
02/04:30am 9.0 5.0 5.0 76 1.8 SW 15 20 8 11 1024.9 1024.9 3.6
02/04:00am 8.8 5.0 5.9 82 1.3 SW 15 19 8 10 1024.5 1024.5 3.6
02/03:30am 8.5 4.1 6.5 87 0.9 WSW 19 24 10 13 1024.1 1024.1 3.6
02/03:00am 7.7 3.5 5.8 88 0.9 WSW 17 28 9 15 1024.2 1024.2 3.6
02/02:30am 8.2 3.6 5.5 83 1.2 WSW 19 24 10 13 1024.2 1024.2 3.6
02/02:00am 9.0 4.5 6.3 83 1.2 WSW 19 26 10 14 1024.1 1024.1 3.6
02/01:30am 8.8 5.1 6.1 83 1.2 WSW 15 20 8 11 1024.0 1024.0 3.6
02/01:00am 9.4 4.7 5.9 79 1.6 SW 20 28 11 15 1023.8 1023.8 3.6
02/12:30am 9.2 4.4 5.8 79 1.5 WSW 20 30 11 16 1023.6 1023.6 3.6
02/12:00am 9.8 4.3 5.8 76 1.8 SW 24 39 13 21 1023.5 1023.5 3.6
 
Date/Time
CST
Temp
°C
App
Temp
°C
Dew
Point
Rel
Hum
%
Delta-T
°C
Wind Press
QNH
hPa
Press
MSL
hPa
Rain
since 9 am
mm
Dir
 
Spd
km/h
Gust
km/h
Spd
kts
Gust
kts
01/11:30pm 9.4 4.8 5.6 77 1.7 SW 19 26 10 14 1023.5 1023.5 3.6
01/11:00pm 7.4 3.7 4.7 83 1.2 W 13 15 7 8 1023.3 1023.3 3.6
01/10:30pm 9.3 3.3 5.5 77 1.7 SSW 26 37 14 20 1023.2 1023.2 3.6
01/10:00pm 9.0 4.3 5.2 77 1.7 SW 19 26 10 14 1022.9 1022.9 3.6
01/09:30pm 7.5 3.8 4.6 82 1.3 WSW 13 17 7 9 1022.6 1022.6 3.6
01/09:00pm 8.8 4.0 4.6 75 1.8 WSW 19 26 10 14 1022.3 1022.3 3.6
01/08:30pm 8.2 4.1 4.2 76 1.7 WSW 15 19 8 10 1021.7 1021.7 3.6
01/08:00pm 7.5 3.4 4.6 82 1.3 WSW 15 19 8 10 1021.5 1021.5 3.6
01/07:30pm 7.8 3.8 4.9 82 1.3 WSW 15 17 8 9 1020.8 1020.8 3.6
01/07:00pm 8.2 4.0 5.7 84 1.1 WSW 17 20 9 11 1020.4 1020.4 3.6
01/06:30pm 8.8 3.6 5.5 80 1.5 WSW 22 33 12 18 1019.7 1019.7 3.6
01/06:00pm 10.4 4.0 5.0 69 2.4 SW 28 44 15 24 1019.1 1019.1 3.6
01/05:30pm 11.6 5.9 5.0 64 3.0 SW 24 35 13 19 1018.6 1018.6 3.6
01/05:00pm 12.7 5.6 5.6 62 3.3 SW 32 44 17 24 1017.9 1017.9 3.6
01/04:30pm 13.2 5.4 5.1 58 3.8 WSW 35 46 19 25 1017.4 1017.4 3.6
01/04:00pm 12.9 6.6 7.6 70 2.6 SW 30 39 16 21 1017.2 1017.2 3.6
01/03:30pm 11.2 4.0 7.7 79 1.7 SW 35 57 19 31 1017.0 1017.0 3.6
01/03:27pm 11.9 4.9 7.0 72 2.3 SW 33 57 18 31 1016.7 1016.7 3.4
01/03:00pm 14.3 7.5 6.9 61 3.6 SW 32 44 17 24 1016.3 1016.3 3.4
01/02:30pm 13.8 7.2 7.8 67 3.0 SW 32 43 17 23 1016.1 1016.1 3.4
01/02:00pm 11.5 4.6 8.7 83 1.4 WSW 35 54 19 29 1016.2 1016.2 3.4
01/01:54pm 13.0 6.9 8.1 72 2.4 WSW 30 50 16 27 1016.1 1016.1 3.2
01/01:30pm 14.0 8.7 8.4 69 2.8 WSW 26 41 14 22 1015.8 1015.8 3.2
01/01:00pm 12.7 8.8 9.5 81 1.6 WSW 20 28 11 15 1016.2 1016.2 3.2
01/12:30pm 11.4 6.1 9.7 89 0.9 SW 28 39 15 21 1016.4 1016.4 3.2
01/12:29pm 11.1 5.6 9.2 88 0.9 SW 28 39 15 21 1016.4 1016.4 3.0
01/12:04pm 11.1 4.0 8.0 81 1.5 SW 35 56 19 30 1016.3 1016.3 1.2
01/12:02pm 12.0 4.8 7.5 74 2.2 SW 35 56 19 30 1016.0 1016.0 0.6
01/12:00pm 13.4 6.8 7.6 68 2.8 SW 32 41 17 22 1015.9 1015.9 0.2
01/11:30am 16.0 10.7 7.0 55 4.4 W 24 32 13 17 1015.7 1015.7 0.2
01/11:00am 16.3 11.1 8.8 61 3.8 W 26 35 14 19 1015.8 1015.8 0.2
01/10:30am 15.1 9.9 7.4 60 3.8 WSW 24 32 13 17 1015.8 1015.8 0.2
01/10:00am 14.4 9.3 7.7 64 3.3 WSW 24 35 13 19 1015.9 1015.9 0.2
01/09:30am 14.3 9.9 8.9 70 2.7 WSW 22 30 12 16 1015.7 1015.7 0.2
01/09:00am 13.7 10.4 9.4 75 2.2 WSW 17 26 9 14 1015.6 1015.6 2.0
01/08:30am 12.6 9.2 9.2 80 1.7 WSW 17 20 9 11 1015.3 1015.3 2.0
01/08:00am 11.1 8.5 9.5 90 0.8 W 13 17 7 9 1015.1 1015.1 2.0
01/07:30am 9.0 6.4 7.8 92 0.6 W 11 13 6 7 1014.8 1014.8 2.0
01/07:00am 9.7 6.5 8.5 92 0.6 W 15 17 8 9 1014.5 1014.5 2.0
01/06:30am 8.9 5.9 7.7 92 0.6 W 13 17 7 9 1014.2 1014.2 2.0
01/06:00am 9.2 6.3 8.0 92 0.6 W 13 15 7 8 1014.0 1014.0 2.0
01/05:30am 10.4 7.3 8.8 90 0.8 W 15 19 8 10 1013.5 1013.5 2.0
01/05:00am 10.7 8.1 9.3 91 0.7 W 13 22 7 12 1013.6 1013.6 2.0
01/04:30am 11.4 8.1 9.7 89 0.9 WSW 17 24 9 13 1013.2 1013.2 2.0
01/04:00am 11.3 9.6 10.0 92 0.7 W 9 13 5 7 1012.7 1012.7 2.0
01/03:30am 11.4 7.8 9.7 89 0.9 WSW 19 30 10 16 1012.7 1012.7 2.0
01/03:00am 11.5 9.2 10.4 93 0.6 WSW 13 15 7 8 1012.8 1012.8 2.0
01/02:39am 11.7 9.1 10.6 93 0.6 SW 15 24 8 13 1012.6 1012.6 2.0
01/02:30am 11.8 8.8 10.7 93 0.6 SW 17 26 9 14 1012.6 1012.6 2.0
01/02:09am 12.3 10.7 11.4 94 0.5 SW 11 17 6 9 1012.6 1012.6 1.8
01/02:03am 12.3 11.0 11.4 94 0.5 WSW 9 13 5 7 1012.7 1012.7 1.6
01/02:00am 12.3 10.6 11.2 93 0.6 WSW 11 15 6 8 1012.6 1012.6 1.6
01/01:44am 12.4 10.3 11.3 93 0.6 WSW 13 20 7 11 1012.6 1012.6 1.4
01/01:30am 12.1 10.0 11.0 93 0.6 W 13 15 7 8 1012.6 1012.6 0.6
01/01:00am 12.2 10.5 11.1 93 0.6 W 11 13 6 7 1012.8 1012.8 0.6
01/12:30am 12.4 10.3 11.3 93 0.6 W 13 15 7 8 1012.7 1012.7 0.6
01/12:00am 12.5 10.8 11.1 91 0.7 WSW 11 13 6 7 1012.5 1012.5 0.6
 
Date/Time
CST
Temp
°C
App
Temp
°C
Dew
Point
Rel
Hum
%
Delta-T
°C
Wind Press
QNH
hPa
Press
MSL
hPa
Rain
since 9 am
mm
Dir
 
Spd
km/h
Gust
km/h
Spd
kts
Gust
kts
31/11:30pm 12.8 10.4 11.4 91 0.7 W 15 20 8 11 1012.7 1012.7 0.6
31/11:00pm 12.8 10.0 11.2 90 0.8 W 17 20 9 11 1012.6 1012.6 0.4
31/10:30pm 12.5 12.4 10.7 89 0.9 WSW 2 9 1 5 1012.7 1012.7 0.4
31/10:00pm 12.6 12.8 10.5 87 1.1 CALM 0 0 0 0 1012.6 1012.6 0.4
31/09:30pm 12.2 11.2 10.4 89 0.9 SW 6 11 3 6 1012.3 1012.3 0.4
31/09:00pm 12.6 10.0 10.8 89 0.9 WSW 15 19 8 10 1012.2 1012.2 0.4
31/08:30pm 13.0 10.5 11.2 89 0.9 WSW 15 20 8 11 1012.0 1012.0 0.4
31/08:00pm 13.3 10.6 11.7 90 0.9 WSW 17 22 9 12 1012.1 1012.1 0.4
31/07:30pm 13.3 11.5 12.0 92 0.7 SW 13 19 7 10 1011.9 1011.9 0.4
31/07:00pm 13.5 11.7 12.2 92 0.7 SW 13 17 7 9 1012.0 1012.0 0.4
31/06:30pm 13.8 11.4 12.5 92 0.7 SW 17 26 9 14 1011.8 1011.8 0.4
31/06:00pm 14.4 12.9 13.0 91 0.8 WSW 13 20 7 11 1011.7 1011.7 0.2
31/05:30pm 15.1 13.6 13.1 88 1.1 WSW 13 19 7 10 1011.3 1011.3 0.2
31/05:00pm 15.9 13.2 12.8 82 1.7 WSW 19 32 10 17 1011.0 1011.0 0.0
31/04:30pm 16.9 14.0 12.2 74 2.6 W 19 24 10 13 1010.9 1010.9 0.0
31/04:00pm 17.2 13.3 10.8 66 3.4 W 22 28 12 15 1010.7 1010.7 0.0
31/03:30pm 18.4 14.3 7.8 50 5.4 WNW 19 22 10 12 1009.9 1009.9 0.0
31/03:00pm 18.7 12.6 6.5 45 6.1 WNW 28 39 15 21 1010.2 1010.2 0.0
31/02:30pm 19.1 11.1 5.6 41 6.6 NW 37 46 20 25 1010.3 1010.3 0.0
31/02:00pm 18.7 12.5 6.2 44 6.2 NW 28 39 15 21 1009.8 1009.8 0.0
31/01:30pm 18.6 12.6 5.5 42 6.4 NW 26 35 14 19 1010.2 1010.2 0.0
31/01:00pm 17.4 10.6 5.0 44 5.9 NW 30 39 16 21 1010.2 1010.2 0.0
31/12:30pm 17.7 10.2 4.6 42 6.2 NW 33 44 18 24 1010.8 1010.8 0.0
31/12:00pm 17.5 10.6 2.3 36 6.9 NNW 28 41 15 22 1011.1 1011.1 0.0
31/11:30am 17.7 9.8 2.5 36 6.9 NNW 33 52 18 28 1011.3 1011.3 0.0
31/11:01am 16.9 10.1 2.9 39 6.4 NNW 28 52 15 28 1011.1 1011.1 0.0
31/11:00am 16.7 10.2 2.7 39 6.4 NNW 26 50 14 27 1011.2 1011.2 0.0
31/10:30am 16.1 9.6 2.5 40 6.1 NW 26 35 14 19 1012.3 1012.3 0.0
31/10:00am 16.9 9.5 1.8 36 6.7 NW 30 41 16 22 1013.1 1013.1 0.0
31/09:30am 17.1 10.0 1.1 34 7.0 NW 28 39 15 21 1012.9 1012.9 0.0
31/09:00am 17.1 11.2 1.9 36 6.8 NNW 22 32 12 17 1012.9 1012.9 0.0
31/08:30am 16.5 9.3 1.0 35 6.8 NNW 28 35 15 19 1012.8 1012.8 0.0
31/08:00am 15.7 8.8 0.3 35 6.6 NNW 26 33 14 18 1012.4 1012.4 0.0
31/07:30am 15.0 7.7 0.1 36 6.3 NNW 28 35 15 19 1012.4 1012.4 0.0
31/07:00am 15.3 7.6 -0.4 34 6.6 NNW 30 37 16 20 1012.1 1012.1 0.0
31/06:30am 15.1 7.4 -0.2 35 6.4 NNW 30 37 16 20 1012.2 1012.2 0.0
31/06:00am 14.6 7.3 0.1 37 6.1 NNW 28 35 15 19 1012.4 1012.4 0.0
31/05:30am 15.2 8.2 -0.5 34 6.6 NNW 26 35 14 19 1012.5 1012.5 0.0
31/05:00am 15.8 9.1 -1.3 31 7.1 NNW 24 37 13 20 1012.9 1012.9 0.0
31/04:30am 15.1 7.0 -0.6 34 6.5 NNW 32 39 17 21 1012.5 1012.5 0.0
31/04:00am 16.3 7.5 -1.3 30 7.3 NW 35 44 19 24 1012.7 1012.7 0.0
31/03:30am 17.8 9.5 -1.4 27 8.1 NNW 32 43 17 23 1012.8 1012.8 0.0
31/03:00am 18.2 10.6 -2.1 25 8.4 NNW 28 35 15 19 1012.7 1012.7 0.0
31/02:30am 18.8 10.4 -2.2 24 8.8 NNW 32 41 17 22 1013.0 1013.0 0.0
31/02:00am 18.9 11.8 -1.5 25 8.7 NNW 26 33 14 18 1013.0 1013.0 0.0
31/01:30am 18.7 13.3 -1.7 25 8.6 N 17 28 9 15 1013.4 1013.4 0.0
31/01:00am 18.4 14.5 -1.4 26 8.4 NNE 9 17 5 9 1013.7 1013.7 0.0
31/12:30am 16.2 11.5 0.7 35 6.7 NE 15 19 8 10 1013.8 1013.8 0.0
31/12:00am 15.2 10.3 -0.5 34 6.6 NNE 15 20 8 11 1014.1 1014.1 0.0
 
Date/Time
CST
Temp
°C
App
Temp
°C
Dew
Point
Rel
Hum
%
Delta-T
°C
Wind Press
QNH
hPa
Press
MSL
hPa
Rain
since 9 am
mm
Dir
 
Spd
km/h
Gust
km/h
Spd
kts
Gust
kts
30/11:30pm 14.3 8.8 0.5 39 5.8 NNE 19 22 10 12 1014.5 1014.5 0.0
30/11:00pm 15.1 10.2 -0.6 34 6.5 N 15 20 8 11 1014.8 1014.8 0.0
30/10:30pm 16.0 11.4 -1.1 31 7.1 N 13 19 7 10 1015.3 1015.3 0.0
30/10:00pm 16.6 12.0 -1.0 30 7.4 N 13 17 7 9 1015.7 1015.7 0.0
30/09:30pm 15.5 10.3 0.1 35 6.5 NNW 17 20 9 11 1015.8 1015.8 0.0
30/09:00pm 14.3 10.4 1.2 41 5.6 NNW 11 13 6 7 1015.9 1015.9 0.0
30/08:30pm 12.6 9.0 3.0 52 4.2 N 11 17 6 9 1016.0 1016.0 0.0
30/08:00pm 12.9 10.3 4.1 55 4.0 N 7 9 4 5 1016.3 1016.3 0.0
30/07:30pm 15.0 11.7 4.4 49 4.9 N 11 13 6 7 1016.4 1016.4 0.0
30/07:00pm 11.4 8.2 6.7 73 2.2 NNW 13 13 7 7 1016.3 1016.3 0.0
30/06:30pm 16.3 13.3 5.9 50 5.0 N 11 13 6 7 1016.4 1016.4 0.0
30/06:00pm 17.3 13.8 5.6 46 5.7 NNW 13 13 7 7 1016.4 1016.4 0.0
30/05:30pm 19.2 16.0 4.9 39 6.9 N 11 15 6 8 1016.4 1016.4 0.0
30/05:00pm 19.2 18.5 8.5 50 5.6 N 2 9 1 5 1016.3 1016.3 0.0
30/04:30pm 20.6 18.7 6.9 41 6.9 N 6 7 3 4 1016.5 1016.5 0.0

Other Formats:

Comma delimited format used in spreadsheet applications
http://www.bom.gov.au/fwo/IDS60801/IDS60801.95661.axf

JavaScript Object Notation format (JSON) in row-major order
http://www.bom.gov.au/fwo/IDS60801/IDS60801.95661.json